KF5FGL Weather Reports


time (UTC)temp
C
wind
direction
speed
KPH
gust
KPH
rain 1hr
cm
rain 24hr
cm
rain mn
cm
humidity
%
barometer
mb
20220811234508 26 275 0.0 1.6 0.00 1.14 1.14 87 1011.4
20220811234501 26 274 0.0 1.6 0.00 1.14 1.14 87 1012.8
20220811233116 25 278 0.0 0.0 0.03 1.14 1.14 88 1011.5
20220811231600 25 279 0.0 1.6 0.03 1.14 1.14 89 1011.5
20220811231501 25 277 0.0 3.2 0.03 1.14 1.14 89 1012.9
20220811230100 24 290 1.6 12.9 0.33 1.14 1.14 90 1011.5
20220811230001 24 256 3.2 9.7 0.43 1.14 1.14 90 1012.9
20220811224615 23 258 1.6 14.5 1.14 1.14 1.14 90 1011.7
20220811224501 24 240 4.8 14.5 1.14 1.14 1.14 90 1013.0
20220811223013 23 227 4.8 16.1 1.12 1.12 1.12 89 1011.7
20220811221511 24 213 6.4 16.1 1.12 1.12 1.12 86 1012.0
20220811221501 25 227 4.8 16.1 1.12 1.12 1.12 86 1013.4
20220811220009 26 333 6.4 37.0 0.71 0.71 0.71 77 1012.8
20220811214510 36 339 8.0 19.3 0.00 0.00 0.00 40 1011.1
20220811214502 36 9 3.2 19.3 0.00 0.00 0.00 40 1012.5
20220811213009 38 185 0.0 3.2 0.00 0.00 0.00 38 1010.6
20220811213001 38 98 0.0 3.2 0.00 0.00 0.00 38 1012.1
20220811211511 37 119 0.0 11.3 0.00 0.00 0.00 38 1010.9
20220811211501 37 101 1.6 11.3 0.00 0.00 0.00 38 1012.5
20220811210009 37 85 0.0 14.5 0.00 0.00 0.00 37 1011.0
20220811210002 38 104 3.2 14.5 0.00 0.00 0.00 37 1012.5
20220811204517 38 238 0.0 8.0 0.00 0.00 0.00 34 1011.3
20220811204502 38 315 1.6 8.0 0.00 0.00 0.00 34 1012.8
20220811203010 39 292 0.0 6.4 0.00 0.00 0.00 34 1011.5
20220811203001 39 249 0.0 6.4 0.00 0.00 0.00 34 1013.0
20220811201510 37 46 0.0 6.4 0.00 0.00 0.00 37 1011.9
20220811201502 37 76 1.6 8.0 0.00 0.00 0.00 37 1013.2
20220811200012 36 271 3.2 11.3 0.00 0.00 0.00 39 1012.1
20220811194509 37 76 0.0 6.4 0.00 0.00 0.00 39 1012.4
20220811193010 37 79 0.0 9.7 0.00 0.00 0.00 39 1012.7
20220811193002 37 27 1.6 8.0 0.00 0.00 0.00 39 1014.2
20220811191518 35 360 0.0 12.9 0.00 0.00 0.00 41 1013.0
20220811191501 36 13 3.2 9.7 0.00 0.00 0.00 41 1014.6
20220811190010 35 337 0.0 11.3 0.00 0.00 0.00 44 1013.4
20220811184511 35 82 0.0 11.3 0.00 0.00 0.00 45 1013.6
20220811184502 35 91 1.6 12.9 0.00 0.00 0.00 45 1015.1
20220811183014 35 37 0.0 8.0 0.00 0.00 0.00 47 1014.0
20220811183002 35 260 1.6 8.0 0.00 0.00 0.00 47 1015.5
20220811181509 34 130 0.0 11.3 0.00 0.00 0.00 50 1014.2
20220811181502 35 91 0.0 11.3 0.00 0.00 0.00 50 1015.7
20220811180021 33 71 1.6 9.7 0.00 0.00 0.00 53 1014.6
20220811174526 32 344 0.0 14.5 0.00 0.00 0.00 55 1014.9
20220811173019 32 157 0.0 9.7 0.00 0.00 0.00 57 1015.2
20220811173002 32 53 1.6 9.7 0.00 0.00 0.00 58 1016.8
20220811171512 32 275 0.0 3.2 0.00 0.00 0.00 58 1015.5
20220811171502 32 280 0.0 3.2 0.00 0.00 0.00 58 1016.9
20220811170013 31 282 0.0 6.4 0.00 0.00 0.00 61 1015.7
20220811164519 31 113 0.0 4.8 0.00 0.00 0.00 62 1015.7
20220811164502 31 112 0.0 4.8 0.00 0.00 0.00 62 1017.2
20220811163105 31 285 0.0 3.2 0.00 0.00 0.00 61 1015.7
20220811163002 32 321 0.0 3.2 0.00 0.00 0.00 60 1017.2
20220811161603 31 312 0.0 4.8 0.00 0.00 0.00 63 1015.6
20220811161502 31 179 1.6 4.8 0.00 0.00 0.00 63 1017.0
20220811160105 31 84 0.0 4.8 0.00 0.00 0.00 63 1015.6
20220811154635 30 26 1.6 11.3 0.00 0.00 0.00 67 1015.6
20220811154503 30 66 1.6 11.3 0.00 0.00 0.00 67 1017.1
20220811153119 29 113 3.2 6.4 0.00 0.00 0.00 69 1015.5
20220811153002 30 71 1.6 8.0 0.00 0.00 0.00 69 1016.9
20220811151607 30 38 1.6 11.3 0.00 0.00 0.00 69 1015.5
20220811151502 30 50 3.2 11.3 0.00 0.00 0.00 69 1016.9
20220811150101 30 113 0.0 6.4 0.00 0.00 0.00 68 1015.4
20220811144602 31 143 0.0 3.2 0.00 0.00 0.00 64 1015.6
20220811144502 31 140 0.0 3.2 0.00 0.00 0.00 64 1017.1
20220811143108 30 209 0.0 6.4 0.00 0.00 0.00 66 1015.4
20220811141605 29 206 0.0 4.8 0.00 0.00 0.00 69 1015.4
20220811141503 30 203 0.0 4.8 0.00 0.00 0.00 70 1016.8
20220811140104 28 94 0.0 4.8 0.00 0.00 0.00 73 1015.3
20220811140002 28 84 0.0 4.8 0.00 0.00 0.00 73 1016.8
20220811134602 27 11 0.0 0.0 0.00 0.00 0.00 76 1015.2
20220811134503 28 0 0.0 0.0 0.00 0.00 0.00 76 1016.7
20220811133115 27 11 0.0 6.4 0.00 0.00 0.00 78 1015.2
20220811133003 27 53 0.0 4.8 0.00 0.00 0.00 78 1016.7
20220811131621 26 163 0.0 1.6 0.00 0.00 0.00 78 1015.1
20220811131502 27 189 0.0 1.6 0.00 0.00 0.00 78 1016.6
20220811130003 26 0 0.0 0.0 0.00 0.00 0.00 82 1016.4
20220811130001 26 206 0.0 0.0 0.00 0.00 0.00 82 1014.9
20220811124506 25 223 0.0 0.0 0.00 0.00 0.00 82 1014.9
20220811123014 25 223 0.0 0.0 0.00 0.00 0.00 83 1014.7
20220811121511 25 223 0.0 0.0 0.00 0.00 0.00 86 1014.6
20220811121503 25 0 0.0 0.0 0.00 0.00 0.00 86 1016.1
20220811120011 24 223 0.0 0.0 0.00 0.00 0.00 85 1014.6
20220811114509 24 223 0.0 0.0 0.00 0.00 0.00 84 1014.5
20220811114503 25 0 0.0 0.0 0.00 0.00 0.00 84 1015.9
20220811113018 25 223 0.0 0.0 0.00 0.00 0.00 83 1014.3
20220811113003 25 0 0.0 0.0 0.00 0.00 0.00 83 1015.8
20220811111511 25 223 0.0 0.0 0.00 0.00 0.00 83 1014.3
20220811111503 25 0 0.0 0.0 0.00 0.00 0.00 83 1015.7
20220811110012 25 223 0.0 0.0 0.00 0.00 0.00 83 1014.3
20220811110003 25 0 0.0 0.0 0.00 0.00 0.00 83 1015.7
20220811104512 25 223 0.0 3.2 0.00 0.00 0.00 83 1014.4
20220811104503 25 224 0.0 3.2 0.00 0.00 0.00 83 1015.9
20220811103017 25 223 0.0 6.4 0.00 0.00 0.00 82 1014.3
20220811101519 25 246 0.0 6.4 0.00 0.00 0.00 82 1014.4
20220811101503 25 241 0.0 6.4 0.00 0.00 0.00 82 1015.9
20220811100011 25 232 0.0 6.4 0.00 0.00 0.00 82 1014.5
20220811094513 25 188 0.0 3.2 0.00 0.00 0.00 80 1014.6
20220811093026 25 188 0.0 4.8 0.00 0.00 0.00 80 1014.7
20220811091526 25 223 0.0 4.8 0.00 0.00 0.00 82 1014.8
20220811091503 25 224 0.0 4.8 0.00 0.00 0.00 82 1016.3
20220811090011 25 243 0.0 9.7 0.00 0.00 0.00 81 1014.9
20220811084511 25 252 0.0 4.8 0.00 0.00 0.00 80 1014.9
20220811084503 25 221 0.0 4.8 0.00 0.00 0.00 80 1016.4
20220811083011 25 203 0.0 3.2 0.00 0.00 0.00 79 1015.2
20220811081533 26 202 0.0 3.2 0.00 0.00 0.00 78 1015.3
20220811080011 26 124 0.0 0.0 0.00 0.00 0.00 79 1015.3
20220811080003 26 0 0.0 0.0 0.00 0.00 0.00 79 1016.7
20220811074513 26 107 0.0 0.0 0.00 0.00 0.00 78 1015.4
20220811074503 26 0 0.0 0.0 0.00 0.00 0.00 78 1016.9
20220811073010 26 107 0.0 1.6 0.00 0.00 0.00 76 1015.4
20220811071533 26 107 0.0 0.0 0.00 0.00 0.00 75 1015.6
20220811071503 26 0 0.0 0.0 0.00 0.00 0.00 75 1017.1
20220811070011 26 107 0.0 0.0 0.00 0.00 0.00 76 1016.0
20220811064520 26 107 0.0 0.0 0.00 0.00 0.00 75 1016.1
20220811064503 26 0 0.0 0.0 0.00 0.00 0.00 75 1017.6
20220811063021 27 107 0.0 0.0 0.00 0.00 0.00 73 1016.3
20220811063003 27 0 0.0 0.0 0.00 0.00 0.00 73 1017.7
20220811061514 27 107 0.0 0.0 0.00 0.00 0.00 73 1016.2
20220811061504 27 0 0.0 0.0 0.00 0.00 0.00 73 1017.7
20220811060014 26 107 0.0 0.0 0.00 0.00 0.00 74 1016.2
20220811060004 26 0 0.0 0.0 0.00 0.00 0.00 74 1017.6
20220811054511 27 107 0.0 0.0 0.00 0.00 0.00 72 1016.1
20220811053011 27 107 0.0 1.6 0.00 0.00 0.00 71 1016.0
20220811051516 26 107 0.0 3.2 0.00 0.00 0.00 73 1015.7
20220811051503 27 110 0.0 3.2 0.00 0.00 0.00 73 1017.2
20220811050029 27 98 0.0 1.6 0.00 0.00 0.00 71 1015.8
20220811050004 27 97 0.0 1.6 0.00 0.00 0.00 71 1017.3
20220811044510 27 112 0.0 12.9 0.00 0.00 0.00 71 1016.0
20220811043023 27 99 1.6 11.3 0.00 0.00 0.00 72 1016.3
20220811041512 28 98 1.6 14.5 0.00 0.00 0.00 69 1016.7
20220811041504 28 113 3.2 14.5 0.00 0.00 0.00 69 1018.2
20220811040020 27 115 4.8 17.7 0.00 0.00 0.00 69 1016.4
20220811034529 28 130 3.2 17.7 0.00 0.00 0.00 66 1016.2
20220811033016 28 75 3.2 16.1 0.00 0.00 0.00 67 1016.4
20220811030140 29 90 1.6 14.5 0.00 0.00 0.00 65 1015.6
20220811024620 29 56 3.2 12.9 0.00 0.00 0.00 63 1015.2
20220811024504 30 88 3.2 12.9 0.00 0.00 0.00 63 1016.7
20220811023040 30 62 1.6 11.3 0.00 0.00 0.00 60 1014.7
20220811021537 30 83 1.6 8.0 0.00 0.00 0.00 60 1014.3
20220811020021 31 11 3.2 14.5 0.00 0.00 0.00 57 1014.4
20220811014520 30 11 3.2 17.7 0.00 0.00 0.00 59 1014.1
20220811013002 31 355 6.4 17.7 0.00 0.00 0.00 57 1013.7
20220811011507 31 5 6.4 22.5 0.00 0.00 0.00 56 1013.6
20220811011500 31 23 9.7 22.5 0.00 0.00 0.00 56 1015.0
20220811010113 31 20 12.9 32.2 0.00 0.00 0.00 54 1013.4
20220811004601 33 55 14.5 32.2 0.00 0.00 0.00 49 1012.8
20220811003112 37 5 3.2 9.7 0.00 0.00 0.00 34 1012.5
20220811001611 38 111 0.0 4.8 0.00 0.00 0.00 33 1012.1
20220811000059 38 170 0.0 4.8 0.00 0.00 0.00 33 1012.0